sensor_id;sensor_type;location;lat;lon;timestamp;P1;durP1;ratioP1;P2;durP2;ratioP2
52674;SDS011;38569;52.722;6.440;2022-08-19T00:01:40;9.93;;;7.65;;
52674;SDS011;38569;52.722;6.440;2022-08-19T00:04:11;9.93;;;7.28;;
52674;SDS011;38569;52.722;6.440;2022-08-19T00:06:39;8.13;;;7.03;;
52674;SDS011;38569;52.722;6.440;2022-08-19T00:09:07;8.50;;;6.93;;
52674;SDS011;38569;52.722;6.440;2022-08-19T00:11:34;14.48;;;7.18;;
52674;SDS011;38569;52.722;6.440;2022-08-19T00:14:02;9.55;;;7.15;;
52674;SDS011;38569;52.722;6.440;2022-08-19T00:16:29;11.50;;;7.97;;
52674;SDS011;38569;52.722;6.440;2022-08-19T00:18:55;8.13;;;7.05;;
52674;SDS011;38569;52.722;6.440;2022-08-19T00:21:21;7.68;;;6.70;;
52674;SDS011;38569;52.722;6.440;2022-08-19T00:23:48;13.20;;;8.73;;
52674;SDS011;38569;52.722;6.440;2022-08-19T00:26:14;8.07;;;6.78;;
52674;SDS011;38569;52.722;6.440;2022-08-19T00:28:39;10.55;;;7.88;;
52674;SDS011;38569;52.722;6.440;2022-08-19T00:31:06;12.15;;;8.02;;
52674;SDS011;38569;52.722;6.440;2022-08-19T00:33:33;9.35;;;6.38;;
52674;SDS011;38569;52.722;6.440;2022-08-19T00:35:59;9.70;;;7.68;;
52674;SDS011;38569;52.722;6.440;2022-08-19T00:38:26;8.68;;;7.68;;
52674;SDS011;38569;52.722;6.440;2022-08-19T00:40:52;9.50;;;7.72;;
52674;SDS011;38569;52.722;6.440;2022-08-19T00:43:20;9.60;;;7.28;;
52674;SDS011;38569;52.722;6.440;2022-08-19T00:45:48;11.00;;;8.20;;
52674;SDS011;38569;52.722;6.440;2022-08-19T00:48:15;8.48;;;7.20;;
52674;SDS011;38569;52.722;6.440;2022-08-19T00:50:41;11.13;;;8.68;;
52674;SDS011;38569;52.722;6.440;2022-08-19T00:53:09;7.95;;;7.15;;
52674;SDS011;38569;52.722;6.440;2022-08-19T00:55:36;11.25;;;7.38;;
52674;SDS011;38569;52.722;6.440;2022-08-19T00:58:06;10.73;;;7.53;;
52674;SDS011;38569;52.722;6.440;2022-08-19T01:00:37;10.63;;;7.03;;
52674;SDS011;38569;52.722;6.440;2022-08-19T01:03:04;9.05;;;7.10;;
52674;SDS011;38569;52.722;6.440;2022-08-19T01:05:32;9.90;;;6.82;;
52674;SDS011;38569;52.722;6.440;2022-08-19T01:07:58;8.38;;;6.07;;
52674;SDS011;38569;52.722;6.440;2022-08-19T01:10:28;7.15;;;6.25;;
52674;SDS011;38569;52.722;6.440;2022-08-19T01:12:57;10.55;;;7.05;;
52674;SDS011;38569;52.722;6.440;2022-08-19T01:15:25;10.30;;;7.47;;
52674;SDS011;38569;52.722;6.440;2022-08-19T01:17:55;13.43;;;10.63;;
52674;SDS011;38569;52.722;6.440;2022-08-19T01:20:23;11.15;;;9.45;;
52674;SDS011;38569;52.722;6.440;2022-08-19T01:22:50;14.80;;;11.10;;
52674;SDS011;38569;52.722;6.440;2022-08-19T01:25:20;15.32;;;11.95;;
52674;SDS011;38569;52.722;6.440;2022-08-19T01:27:50;13.70;;;12.18;;
52674;SDS011;38569;52.722;6.440;2022-08-19T01:30:18;12.45;;;10.80;;
52674;SDS011;38569;52.722;6.440;2022-08-19T01:32:53;11.60;;;10.40;;
52674;SDS011;38569;52.722;6.440;2022-08-19T01:35:20;16.25;;;11.90;;
52674;SDS011;38569;52.722;6.440;2022-08-19T01:37:50;14.27;;;12.15;;
52674;SDS011;38569;52.722;6.440;2022-08-19T01:40:19;15.43;;;11.65;;
52674;SDS011;38569;52.722;6.440;2022-08-19T01:42:47;16.73;;;11.57;;
52674;SDS011;38569;52.722;6.440;2022-08-19T01:45:14;15.00;;;12.70;;
52674;SDS011;38569;52.722;6.440;2022-08-19T01:47:40;14.60;;;11.43;;
52674;SDS011;38569;52.722;6.440;2022-08-19T01:50:07;15.35;;;12.70;;
52674;SDS011;38569;52.722;6.440;2022-08-19T01:52:39;17.65;;;12.90;;
52674;SDS011;38569;52.722;6.440;2022-08-19T01:55:07;15.30;;;13.68;;
52674;SDS011;38569;52.722;6.440;2022-08-19T01:57:35;15.63;;;12.35;;
52674;SDS011;38569;52.722;6.440;2022-08-19T02:00:03;13.27;;;11.73;;
52674;SDS011;38569;52.722;6.440;2022-08-19T02:02:31;15.52;;;11.65;;
52674;SDS011;38569;52.722;6.440;2022-08-19T02:04:57;13.40;;;11.68;;
52674;SDS011;38569;52.722;6.440;2022-08-19T02:07:24;13.52;;;11.88;;
52674;SDS011;38569;52.722;6.440;2022-08-19T02:09:50;19.42;;;13.90;;
52674;SDS011;38569;52.722;6.440;2022-08-19T02:12:16;14.70;;;12.57;;
52674;SDS011;38569;52.722;6.440;2022-08-19T02:14:42;14.50;;;11.68;;
52674;SDS011;38569;52.722;6.440;2022-08-19T02:17:08;17.67;;;11.68;;
52674;SDS011;38569;52.722;6.440;2022-08-19T02:19:34;15.65;;;13.02;;
52674;SDS011;38569;52.722;6.440;2022-08-19T02:21:59;14.85;;;11.52;;
52674;SDS011;38569;52.722;6.440;2022-08-19T02:24:26;13.55;;;10.70;;
52674;SDS011;38569;52.722;6.440;2022-08-19T02:26:52;16.58;;;12.43;;
52674;SDS011;38569;52.722;6.440;2022-08-19T02:29:18;15.55;;;11.40;;
52674;SDS011;38569;52.722;6.440;2022-08-19T02:31:44;14.10;;;11.50;;
52674;SDS011;38569;52.722;6.440;2022-08-19T02:34:10;15.50;;;11.75;;
52674;SDS011;38569;52.722;6.440;2022-08-19T02:36:36;14.23;;;10.93;;
52674;SDS011;38569;52.722;6.440;2022-08-19T02:39:02;12.23;;;9.77;;
52674;SDS011;38569;52.722;6.440;2022-08-19T02:41:30;12.07;;;9.52;;
52674;SDS011;38569;52.722;6.440;2022-08-19T02:43:57;13.48;;;10.48;;
52674;SDS011;38569;52.722;6.440;2022-08-19T02:46:27;13.05;;;8.93;;
52674;SDS011;38569;52.722;6.440;2022-08-19T02:48:56;16.42;;;11.15;;
52674;SDS011;38569;52.722;6.440;2022-08-19T02:51:27;13.63;;;11.90;;
52674;SDS011;38569;52.722;6.440;2022-08-19T02:53:59;16.67;;;12.70;;
52674;SDS011;38569;52.722;6.440;2022-08-19T02:56:25;14.55;;;13.00;;
52674;SDS011;38569;52.722;6.440;2022-08-19T02:58:52;17.70;;;14.30;;
52674;SDS011;38569;52.722;6.440;2022-08-19T03:03:48;17.25;;;14.05;;
52674;SDS011;38569;52.722;6.440;2022-08-19T03:06:15;17.70;;;13.95;;
52674;SDS011;38569;52.722;6.440;2022-08-19T03:08:42;19.77;;;13.85;;
52674;SDS011;38569;52.722;6.440;2022-08-19T03:11:17;23.23;;;16.50;;
52674;SDS011;38569;52.722;6.440;2022-08-19T03:13:45;26.08;;;17.88;;
52674;SDS011;38569;52.722;6.440;2022-08-19T03:16:14;19.48;;;16.08;;
52674;SDS011;38569;52.722;6.440;2022-08-19T03:18:41;20.60;;;13.43;;
52674;SDS011;38569;52.722;6.440;2022-08-19T03:21:07;18.30;;;14.30;;
52674;SDS011;38569;52.722;6.440;2022-08-19T03:23:32;16.60;;;13.90;;
52674;SDS011;38569;52.722;6.440;2022-08-19T03:25:59;30.65;;;15.32;;
52674;SDS011;38569;52.722;6.440;2022-08-19T03:28:29;25.52;;;18.08;;
52674;SDS011;38569;52.722;6.440;2022-08-19T03:31:04;28.90;;;19.83;;
52674;SDS011;38569;52.722;6.440;2022-08-19T03:33:32;20.63;;;16.90;;
52674;SDS011;38569;52.722;6.440;2022-08-19T03:36:02;35.78;;;20.75;;
52674;SDS011;38569;52.722;6.440;2022-08-19T03:38:30;24.02;;;15.73;;
52674;SDS011;38569;52.722;6.440;2022-08-19T03:40:57;20.25;;;15.15;;
52674;SDS011;38569;52.722;6.440;2022-08-19T03:43:26;21.38;;;16.17;;
52674;SDS011;38569;52.722;6.440;2022-08-19T03:46:03;16.75;;;13.27;;
52674;SDS011;38569;52.722;6.440;2022-08-19T03:48:32;20.58;;;14.70;;
52674;SDS011;38569;52.722;6.440;2022-08-19T03:50:58;12.88;;;10.90;;
52674;SDS011;38569;52.722;6.440;2022-08-19T03:53:26;12.85;;;10.20;;
52674;SDS011;38569;52.722;6.440;2022-08-19T03:55:53;12.00;;;9.65;;
52674;SDS011;38569;52.722;6.440;2022-08-19T03:58:20;22.02;;;14.20;;
52674;SDS011;38569;52.722;6.440;2022-08-19T04:00:47;16.48;;;12.10;;
52674;SDS011;38569;52.722;6.440;2022-08-19T04:03:12;16.48;;;11.27;;
52674;SDS011;38569;52.722;6.440;2022-08-19T04:05:38;11.07;;;9.80;;
52674;SDS011;38569;52.722;6.440;2022-08-19T04:08:04;15.75;;;11.23;;
52674;SDS011;38569;52.722;6.440;2022-08-19T04:10:30;12.32;;;9.23;;
52674;SDS011;38569;52.722;6.440;2022-08-19T04:13:07;9.80;;;8.73;;
52674;SDS011;38569;52.722;6.440;2022-08-19T04:15:38;13.35;;;9.43;;
52674;SDS011;38569;52.722;6.440;2022-08-19T04:18:06;12.73;;;9.73;;
52674;SDS011;38569;52.722;6.440;2022-08-19T04:20:42;10.38;;;9.23;;
52674;SDS011;38569;52.722;6.440;2022-08-19T04:23:10;11.98;;;10.38;;
52674;SDS011;38569;52.722;6.440;2022-08-19T04:25:41;15.90;;;12.55;;
52674;SDS011;38569;52.722;6.440;2022-08-19T04:28:09;15.93;;;14.18;;
52674;SDS011;38569;52.722;6.440;2022-08-19T04:30:41;20.08;;;14.25;;
52674;SDS011;38569;52.722;6.440;2022-08-19T04:33:10;22.40;;;14.47;;
52674;SDS011;38569;52.722;6.440;2022-08-19T04:35:38;21.38;;;17.38;;
52674;SDS011;38569;52.722;6.440;2022-08-19T04:38:05;23.65;;;16.70;;
52674;SDS011;38569;52.722;6.440;2022-08-19T04:40:32;25.88;;;18.27;;
52674;SDS011;38569;52.722;6.440;2022-08-19T04:43:16;22.58;;;16.98;;
52674;SDS011;38569;52.722;6.440;2022-08-19T04:45:43;22.00;;;17.90;;
52674;SDS011;38569;52.722;6.440;2022-08-19T04:48:09;22.67;;;18.33;;
52674;SDS011;38569;52.722;6.440;2022-08-19T04:50:36;28.80;;;19.27;;
52674;SDS011;38569;52.722;6.440;2022-08-19T04:53:05;24.92;;;18.42;;
52674;SDS011;38569;52.722;6.440;2022-08-19T04:55:31;22.05;;;16.40;;
52674;SDS011;38569;52.722;6.440;2022-08-19T04:57:56;20.60;;;16.17;;
52674;SDS011;38569;52.722;6.440;2022-08-19T05:00:22;19.70;;;15.10;;
52674;SDS011;38569;52.722;6.440;2022-08-19T05:02:48;23.15;;;16.63;;
52674;SDS011;38569;52.722;6.440;2022-08-19T05:05:14;20.48;;;16.63;;
52674;SDS011;38569;52.722;6.440;2022-08-19T05:07:40;21.27;;;15.43;;
52674;SDS011;38569;52.722;6.440;2022-08-19T05:10:06;18.65;;;16.30;;
52674;SDS011;38569;52.722;6.440;2022-08-19T05:12:32;24.23;;;16.63;;
52674;SDS011;38569;52.722;6.440;2022-08-19T05:14:58;21.98;;;17.88;;
52674;SDS011;38569;52.722;6.440;2022-08-19T05:17:26;16.95;;;13.57;;
52674;SDS011;38569;52.722;6.440;2022-08-19T05:19:52;18.33;;;15.98;;
52674;SDS011;38569;52.722;6.440;2022-08-19T05:22:37;20.55;;;14.95;;
52674;SDS011;38569;52.722;6.440;2022-08-19T05:25:08;18.33;;;14.55;;
52674;SDS011;38569;52.722;6.440;2022-08-19T05:27:37;22.00;;;18.25;;
52674;SDS011;38569;52.722;6.440;2022-08-19T05:30:03;23.27;;;17.17;;
52674;SDS011;38569;52.722;6.440;2022-08-19T05:32:30;21.20;;;17.73;;
52674;SDS011;38569;52.722;6.440;2022-08-19T05:34:56;21.00;;;18.00;;
52674;SDS011;38569;52.722;6.440;2022-08-19T05:37:22;18.75;;;16.60;;
52674;SDS011;38569;52.722;6.440;2022-08-19T05:39:48;21.17;;;15.35;;
52674;SDS011;38569;52.722;6.440;2022-08-19T05:42:14;20.35;;;17.75;;
52674;SDS011;38569;52.722;6.440;2022-08-19T05:44:41;18.83;;;15.93;;
52674;SDS011;38569;52.722;6.440;2022-08-19T05:47:14;19.83;;;16.50;;
52674;SDS011;38569;52.722;6.440;2022-08-19T05:49:41;23.77;;;19.08;;
52674;SDS011;38569;52.722;6.440;2022-08-19T05:52:11;23.27;;;18.60;;
52674;SDS011;38569;52.722;6.440;2022-08-19T05:54:40;18.90;;;16.05;;
52674;SDS011;38569;52.722;6.440;2022-08-19T05:57:08;24.92;;;20.10;;
52674;SDS011;38569;52.722;6.440;2022-08-19T05:59:34;22.60;;;19.38;;
52674;SDS011;38569;52.722;6.440;2022-08-19T06:02:03;21.85;;;19.20;;
52674;SDS011;38569;52.722;6.440;2022-08-19T06:04:30;20.30;;;17.70;;
52674;SDS011;38569;52.722;6.440;2022-08-19T06:06:55;21.30;;;18.02;;
52674;SDS011;38569;52.722;6.440;2022-08-19T06:09:21;22.67;;;19.10;;
52674;SDS011;38569;52.722;6.440;2022-08-19T06:11:52;19.83;;;17.77;;
52674;SDS011;38569;52.722;6.440;2022-08-19T06:14:20;20.17;;;18.08;;
52674;SDS011;38569;52.722;6.440;2022-08-19T06:16:48;22.08;;;16.75;;
52674;SDS011;38569;52.722;6.440;2022-08-19T06:19:16;20.25;;;16.83;;
52674;SDS011;38569;52.722;6.440;2022-08-19T06:21:45;19.55;;;17.25;;
52674;SDS011;38569;52.722;6.440;2022-08-19T06:24:14;27.98;;;19.63;;
52674;SDS011;38569;52.722;6.440;2022-08-19T06:26:43;20.30;;;17.52;;
52674;SDS011;38569;52.722;6.440;2022-08-19T06:29:11;20.25;;;16.92;;
52674;SDS011;38569;52.722;6.440;2022-08-19T06:31:41;23.42;;;18.80;;
52674;SDS011;38569;52.722;6.440;2022-08-19T06:34:09;20.55;;;17.88;;
52674;SDS011;38569;52.722;6.440;2022-08-19T06:36:36;20.30;;;17.92;;
52674;SDS011;38569;52.722;6.440;2022-08-19T06:39:04;20.33;;;17.65;;
52674;SDS011;38569;52.722;6.440;2022-08-19T06:41:34;18.00;;;15.57;;
52674;SDS011;38569;52.722;6.440;2022-08-19T06:44:01;18.45;;;15.15;;
52674;SDS011;38569;52.722;6.440;2022-08-19T06:46:28;19.88;;;15.98;;
52674;SDS011;38569;52.722;6.440;2022-08-19T06:48:54;17.25;;;15.45;;
52674;SDS011;38569;52.722;6.440;2022-08-19T06:51:20;19.23;;;15.30;;
52674;SDS011;38569;52.722;6.440;2022-08-19T06:53:48;16.52;;;14.52;;
52674;SDS011;38569;52.722;6.440;2022-08-19T06:56:16;18.60;;;15.23;;
52674;SDS011;38569;52.722;6.440;2022-08-19T06:58:46;16.77;;;15.18;;
52674;SDS011;38569;52.722;6.440;2022-08-19T07:01:15;16.00;;;14.20;;
52674;SDS011;38569;52.722;6.440;2022-08-19T07:03:41;18.92;;;15.65;;
52674;SDS011;38569;52.722;6.440;2022-08-19T07:06:08;23.17;;;15.77;;
52674;SDS011;38569;52.722;6.440;2022-08-19T07:08:37;16.98;;;15.25;;
52674;SDS011;38569;52.722;6.440;2022-08-19T07:11:07;17.08;;;15.32;;
52674;SDS011;38569;52.722;6.440;2022-08-19T07:13:34;16.75;;;13.32;;
52674;SDS011;38569;52.722;6.440;2022-08-19T07:16:05;16.92;;;15.18;;
52674;SDS011;38569;52.722;6.440;2022-08-19T07:18:32;19.52;;;16.50;;
52674;SDS011;38569;52.722;6.440;2022-08-19T07:21:09;19.00;;;16.95;;
52674;SDS011;38569;52.722;6.440;2022-08-19T07:23:37;16.58;;;14.65;;
52674;SDS011;38569;52.722;6.440;2022-08-19T07:26:08;17.30;;;15.23;;
52674;SDS011;38569;52.722;6.440;2022-08-19T07:28:36;17.88;;;15.98;;
52674;SDS011;38569;52.722;6.440;2022-08-19T07:31:05;17.00;;;14.27;;
52674;SDS011;38569;52.722;6.440;2022-08-19T07:33:32;16.98;;;14.13;;
52674;SDS011;38569;52.722;6.440;2022-08-19T07:35:59;18.95;;;15.88;;
52674;SDS011;38569;52.722;6.440;2022-08-19T07:38:24;21.02;;;16.55;;
52674;SDS011;38569;52.722;6.440;2022-08-19T07:40:50;18.23;;;16.30;;
52674;SDS011;38569;52.722;6.440;2022-08-19T07:43:16;18.50;;;14.55;;
52674;SDS011;38569;52.722;6.440;2022-08-19T07:45:51;16.17;;;14.52;;
52674;SDS011;38569;52.722;6.440;2022-08-19T07:48:21;17.70;;;15.63;;
52674;SDS011;38569;52.722;6.440;2022-08-19T07:50:54;17.25;;;15.45;;
52674;SDS011;38569;52.722;6.440;2022-08-19T07:53:22;16.83;;;14.13;;
52674;SDS011;38569;52.722;6.440;2022-08-19T07:55:49;20.52;;;16.15;;
52674;SDS011;38569;52.722;6.440;2022-08-19T07:58:18;19.40;;;15.07;;
52674;SDS011;38569;52.722;6.440;2022-08-19T08:00:46;18.30;;;15.80;;
52674;SDS011;38569;52.722;6.440;2022-08-19T08:03:15;16.70;;;14.50;;
52674;SDS011;38569;52.722;6.440;2022-08-19T08:05:42;15.85;;;14.18;;
52674;SDS011;38569;52.722;6.440;2022-08-19T08:11:11;19.38;;;15.45;;
52674;SDS011;38569;52.722;6.440;2022-08-19T08:13:39;19.00;;;17.08;;
52674;SDS011;38569;52.722;6.440;2022-08-19T08:16:12;19.80;;;16.83;;
52674;SDS011;38569;52.722;6.440;2022-08-19T08:18:37;20.88;;;16.70;;
52674;SDS011;38569;52.722;6.440;2022-08-19T08:21:06;16.08;;;14.20;;
52674;SDS011;38569;52.722;6.440;2022-08-19T08:23:32;19.25;;;17.00;;
52674;SDS011;38569;52.722;6.440;2022-08-19T08:25:58;18.15;;;16.25;;
52674;SDS011;38569;52.722;6.440;2022-08-19T08:28:25;21.30;;;18.52;;
52674;SDS011;38569;52.722;6.440;2022-08-19T08:30:52;22.60;;;18.08;;
52674;SDS011;38569;52.722;6.440;2022-08-19T08:33:20;19.13;;;17.27;;
52674;SDS011;38569;52.722;6.440;2022-08-19T08:35:47;17.95;;;16.23;;
52674;SDS011;38569;52.722;6.440;2022-08-19T08:38:13;17.83;;;16.13;;
52674;SDS011;38569;52.722;6.440;2022-08-19T08:40:47;15.65;;;14.05;;
52674;SDS011;38569;52.722;6.440;2022-08-19T08:46:03;14.63;;;12.75;;
52674;SDS011;38569;52.722;6.440;2022-08-19T08:51:51;17.63;;;14.32;;
52674;SDS011;38569;52.722;6.440;2022-08-19T08:54:25;14.80;;;13.40;;
52674;SDS011;38569;52.722;6.440;2022-08-19T08:57:03;15.23;;;13.65;;
52674;SDS011;38569;52.722;6.440;2022-08-19T08:59:36;15.00;;;13.40;;
52674;SDS011;38569;52.722;6.440;2022-08-19T09:02:06;13.57;;;12.23;;
52674;SDS011;38569;52.722;6.440;2022-08-19T09:04:33;12.57;;;11.50;;
52674;SDS011;38569;52.722;6.440;2022-08-19T09:09:52;15.02;;;13.02;;
52674;SDS011;38569;52.722;6.440;2022-08-19T09:12:43;12.82;;;11.63;;
52674;SDS011;38569;52.722;6.440;2022-08-19T09:15:18;13.13;;;11.93;;
52674;SDS011;38569;52.722;6.440;2022-08-19T09:17:53;12.70;;;11.40;;
52674;SDS011;38569;52.722;6.440;2022-08-19T09:20:21;14.45;;;13.18;;
52674;SDS011;38569;52.722;6.440;2022-08-19T09:22:48;13.73;;;12.13;;
52674;SDS011;38569;52.722;6.440;2022-08-19T09:25:21;13.77;;;12.43;;
52674;SDS011;38569;52.722;6.440;2022-08-19T09:30:18;13.00;;;11.88;;
52674;SDS011;38569;52.722;6.440;2022-08-19T09:32:49;12.13;;;10.90;;
52674;SDS011;38569;52.722;6.440;2022-08-19T09:35:17;11.02;;;9.43;;
52674;SDS011;38569;52.722;6.440;2022-08-19T09:37:47;9.73;;;8.80;;
52674;SDS011;38569;52.722;6.440;2022-08-19T09:40:16;11.65;;;10.45;;
52674;SDS011;38569;52.722;6.440;2022-08-19T09:42:43;11.52;;;10.45;;
52674;SDS011;38569;52.722;6.440;2022-08-19T09:45:12;12.60;;;11.38;;
52674;SDS011;38569;52.722;6.440;2022-08-19T09:47:38;11.65;;;10.40;;
52674;SDS011;38569;52.722;6.440;2022-08-19T09:50:05;12.32;;;11.07;;
52674;SDS011;38569;52.722;6.440;2022-08-19T09:52:32;11.93;;;10.77;;
52674;SDS011;38569;52.722;6.440;2022-08-19T09:54:59;8.75;;;7.95;;
52674;SDS011;38569;52.722;6.440;2022-08-19T09:57:25;9.40;;;8.60;;
52674;SDS011;38569;52.722;6.440;2022-08-19T09:59:51;11.63;;;10.48;;
52674;SDS011;38569;52.722;6.440;2022-08-19T10:02:16;11.15;;;9.65;;
52674;SDS011;38569;52.722;6.440;2022-08-19T10:04:42;11.55;;;9.25;;
52674;SDS011;38569;52.722;6.440;2022-08-19T10:07:26;10.10;;;9.20;;
52674;SDS011;38569;52.722;6.440;2022-08-19T10:09:55;8.85;;;7.95;;
52674;SDS011;38569;52.722;6.440;2022-08-19T10:12:21;15.57;;;11.93;;
52674;SDS011;38569;52.722;6.440;2022-08-19T10:14:47;10.38;;;9.18;;
52674;SDS011;38569;52.722;6.440;2022-08-19T10:17:13;13.68;;;11.70;;
52674;SDS011;38569;52.722;6.440;2022-08-19T10:19:39;11.40;;;10.32;;
52674;SDS011;38569;52.722;6.440;2022-08-19T10:22:05;14.20;;;10.30;;
52674;SDS011;38569;52.722;6.440;2022-08-19T10:24:32;14.43;;;11.32;;
52674;SDS011;38569;52.722;6.440;2022-08-19T10:26:59;15.13;;;13.05;;
52674;SDS011;38569;52.722;6.440;2022-08-19T10:29:28;14.90;;;10.80;;
52674;SDS011;38569;52.722;6.440;2022-08-19T10:31:56;8.80;;;7.88;;
52674;SDS011;38569;52.722;6.440;2022-08-19T10:34:23;9.05;;;8.05;;
52674;SDS011;38569;52.722;6.440;2022-08-19T10:36:49;10.75;;;9.57;;
52674;SDS011;38569;52.722;6.440;2022-08-19T10:39:16;12.20;;;9.70;;
52674;SDS011;38569;52.722;6.440;2022-08-19T10:41:42;9.30;;;7.97;;
52674;SDS011;38569;52.722;6.440;2022-08-19T10:44:10;10.15;;;8.63;;
52674;SDS011;38569;52.722;6.440;2022-08-19T10:46:38;11.50;;;10.30;;
52674;SDS011;38569;52.722;6.440;2022-08-19T10:49:07;11.52;;;10.35;;
52674;SDS011;38569;52.722;6.440;2022-08-19T10:51:35;11.55;;;9.70;;
52674;SDS011;38569;52.722;6.440;2022-08-19T10:54:19;12.75;;;11.63;;
52674;SDS011;38569;52.722;6.440;2022-08-19T10:56:45;12.48;;;10.45;;
52674;SDS011;38569;52.722;6.440;2022-08-19T10:59:23;13.40;;;12.10;;
52674;SDS011;38569;52.722;6.440;2022-08-19T11:01:57;15.10;;;13.70;;
52674;SDS011;38569;52.722;6.440;2022-08-19T11:04:24;15.98;;;14.15;;
52674;SDS011;38569;52.722;6.440;2022-08-19T11:06:50;11.13;;;10.00;;
52674;SDS011;38569;52.722;6.440;2022-08-19T11:09:22;15.55;;;9.85;;
52674;SDS011;38569;52.722;6.440;2022-08-19T11:11:49;10.95;;;9.77;;
52674;SDS011;38569;52.722;6.440;2022-08-19T11:14:17;10.82;;;9.75;;
52674;SDS011;38569;52.722;6.440;2022-08-19T11:16:45;14.10;;;12.70;;
52674;SDS011;38569;52.722;6.440;2022-08-19T11:19:12;17.27;;;15.68;;
52674;SDS011;38569;52.722;6.440;2022-08-19T11:21:42;13.32;;;12.00;;
52674;SDS011;38569;52.722;6.440;2022-08-19T11:24:27;12.80;;;11.50;;
52674;SDS011;38569;52.722;6.440;2022-08-19T11:26:54;14.25;;;10.32;;
52674;SDS011;38569;52.722;6.440;2022-08-19T11:29:28;12.10;;;10.40;;
52674;SDS011;38569;52.722;6.440;2022-08-19T11:31:54;10.75;;;9.50;;
52674;SDS011;38569;52.722;6.440;2022-08-19T11:34:21;13.00;;;11.38;;
52674;SDS011;38569;52.722;6.440;2022-08-19T11:36:49;15.52;;;14.05;;
52674;SDS011;38569;52.722;6.440;2022-08-19T11:39:19;13.38;;;11.98;;
52674;SDS011;38569;52.722;6.440;2022-08-19T11:41:46;12.57;;;11.38;;
52674;SDS011;38569;52.722;6.440;2022-08-19T11:44:15;18.88;;;12.48;;
52674;SDS011;38569;52.722;6.440;2022-08-19T11:46:41;16.52;;;15.00;;
52674;SDS011;38569;52.722;6.440;2022-08-19T11:49:11;12.95;;;11.73;;
52674;SDS011;38569;52.722;6.440;2022-08-19T11:51:39;11.32;;;10.13;;
52674;SDS011;38569;52.722;6.440;2022-08-19T11:54:07;11.98;;;10.75;;
52674;SDS011;38569;52.722;6.440;2022-08-19T11:56:33;12.85;;;10.77;;
52674;SDS011;38569;52.722;6.440;2022-08-19T11:59:00;18.38;;;11.88;;
52674;SDS011;38569;52.722;6.440;2022-08-19T12:01:26;13.73;;;12.32;;
52674;SDS011;38569;52.722;6.440;2022-08-19T12:03:52;12.05;;;10.80;;
52674;SDS011;38569;52.722;6.440;2022-08-19T12:06:21;9.40;;;8.48;;
52674;SDS011;38569;52.722;6.440;2022-08-19T12:08:54;11.60;;;9.73;;
52674;SDS011;38569;52.722;6.440;2022-08-19T12:11:23;12.80;;;11.57;;
52674;SDS011;38569;52.722;6.440;2022-08-19T12:13:49;13.65;;;10.98;;
52674;SDS011;38569;52.722;6.440;2022-08-19T12:16:24;10.50;;;9.50;;
52674;SDS011;38569;52.722;6.440;2022-08-19T12:18:52;8.90;;;8.00;;
52674;SDS011;38569;52.722;6.440;2022-08-19T12:21:19;13.25;;;12.00;;
52674;SDS011;38569;52.722;6.440;2022-08-19T12:23:47;11.90;;;10.65;;
52674;SDS011;38569;52.722;6.440;2022-08-19T12:26:14;11.52;;;10.10;;
52674;SDS011;38569;52.722;6.440;2022-08-19T12:28:41;10.52;;;8.43;;
52674;SDS011;38569;52.722;6.440;2022-08-19T12:31:07;12.75;;;11.45;;
52674;SDS011;38569;52.722;6.440;2022-08-19T12:33:33;10.90;;;9.85;;
52674;SDS011;38569;52.722;6.440;2022-08-19T12:36:03;10.82;;;9.75;;
52674;SDS011;38569;52.722;6.440;2022-08-19T12:38:30;10.68;;;9.32;;
52674;SDS011;38569;52.722;6.440;2022-08-19T12:40:57;12.93;;;11.43;;
52674;SDS011;38569;52.722;6.440;2022-08-19T12:43:23;9.57;;;8.68;;
52674;SDS011;38569;52.722;6.440;2022-08-19T12:45:49;13.02;;;11.73;;
52674;SDS011;38569;52.722;6.440;2022-08-19T12:48:16;14.57;;;13.18;;
52674;SDS011;38569;52.722;6.440;2022-08-19T12:50:42;12.85;;;11.60;;
52674;SDS011;38569;52.722;6.440;2022-08-19T12:53:12;9.98;;;7.65;;
52674;SDS011;38569;52.722;6.440;2022-08-19T12:55:39;10.00;;;8.55;;
52674;SDS011;38569;52.722;6.440;2022-08-19T12:58:05;12.98;;;11.55;;
52674;SDS011;38569;52.722;6.440;2022-08-19T13:00:30;13.52;;;12.20;;
52674;SDS011;38569;52.722;6.440;2022-08-19T13:02:58;13.27;;;10.40;;
52674;SDS011;38569;52.722;6.440;2022-08-19T13:05:26;14.52;;;12.82;;
52674;SDS011;38569;52.722;6.440;2022-08-19T13:07:54;14.02;;;12.52;;
52674;SDS011;38569;52.722;6.440;2022-08-19T13:10:21;13.43;;;11.23;;
52674;SDS011;38569;52.722;6.440;2022-08-19T13:12:50;14.65;;;11.50;;
52674;SDS011;38569;52.722;6.440;2022-08-19T13:15:18;11.73;;;8.95;;
52674;SDS011;38569;52.722;6.440;2022-08-19T13:17:46;10.15;;;7.93;;
52674;SDS011;38569;52.722;6.440;2022-08-19T13:20:17;16.90;;;6.63;;
52674;SDS011;38569;52.722;6.440;2022-08-19T13:22:45;11.88;;;7.28;;
52674;SDS011;38569;52.722;6.440;2022-08-19T13:25:13;9.00;;;7.38;;
52674;SDS011;38569;52.722;6.440;2022-08-19T13:27:42;10.18;;;8.63;;
52674;SDS011;38569;52.722;6.440;2022-08-19T13:30:10;12.57;;;9.00;;
52674;SDS011;38569;52.722;6.440;2022-08-19T13:32:56;10.38;;;9.32;;
52674;SDS011;38569;52.722;6.440;2022-08-19T13:35:44;12.95;;;10.05;;
52674;SDS011;38569;52.722;6.440;2022-08-19T13:38:19;10.57;;;8.30;;
52674;SDS011;38569;52.722;6.440;2022-08-19T13:40:46;8.40;;;6.60;;
52674;SDS011;38569;52.722;6.440;2022-08-19T13:43:13;8.35;;;6.43;;
52674;SDS011;38569;52.722;6.440;2022-08-19T13:45:39;8.73;;;7.22;;
52674;SDS011;38569;52.722;6.440;2022-08-19T13:48:05;7.18;;;5.35;;
52674;SDS011;38569;52.722;6.440;2022-08-19T13:50:34;7.68;;;5.53;;
52674;SDS011;38569;52.722;6.440;2022-08-19T13:53:03;8.75;;;6.75;;
52674;SDS011;38569;52.722;6.440;2022-08-19T13:55:29;9.48;;;6.97;;
52674;SDS011;38569;52.722;6.440;2022-08-19T13:57:56;9.23;;;7.97;;
52674;SDS011;38569;52.722;6.440;2022-08-19T14:00:24;9.50;;;6.80;;
52674;SDS011;38569;52.722;6.440;2022-08-19T14:02:53;11.80;;;8.07;;
52674;SDS011;38569;52.722;6.440;2022-08-19T14:05:21;8.07;;;7.25;;
52674;SDS011;38569;52.722;6.440;2022-08-19T14:07:47;10.23;;;8.35;;
52674;SDS011;38569;52.722;6.440;2022-08-19T14:10:13;10.48;;;8.85;;
52674;SDS011;38569;52.722;6.440;2022-08-19T14:12:40;9.68;;;7.93;;
52674;SDS011;38569;52.722;6.440;2022-08-19T14:15:06;11.57;;;9.02;;
52674;SDS011;38569;52.722;6.440;2022-08-19T14:17:33;13.90;;;10.10;;
52674;SDS011;38569;52.722;6.440;2022-08-19T14:20:03;12.85;;;11.38;;
52674;SDS011;38569;52.722;6.440;2022-08-19T14:22:34;17.25;;;15.07;;
52674;SDS011;38569;52.722;6.440;2022-08-19T14:25:04;16.20;;;14.50;;
52674;SDS011;38569;52.722;6.440;2022-08-19T14:27:35;16.55;;;13.10;;
52674;SDS011;38569;52.722;6.440;2022-08-19T14:30:03;13.35;;;11.13;;
52674;SDS011;38569;52.722;6.440;2022-08-19T14:32:29;13.95;;;12.32;;
52674;SDS011;38569;52.722;6.440;2022-08-19T14:34:55;14.43;;;12.23;;
52674;SDS011;38569;52.722;6.440;2022-08-19T14:37:20;13.43;;;11.13;;
52674;SDS011;38569;52.722;6.440;2022-08-19T14:39:49;14.23;;;10.65;;
52674;SDS011;38569;52.722;6.440;2022-08-19T14:42:14;15.38;;;11.98;;
52674;SDS011;38569;52.722;6.440;2022-08-19T14:44:41;11.52;;;10.32;;
52674;SDS011;38569;52.722;6.440;2022-08-19T14:47:07;12.70;;;11.05;;
52674;SDS011;38569;52.722;6.440;2022-08-19T14:49:34;13.98;;;11.27;;